David, Kentucky
Current Conditions -  °F | °C
As of 3:35 PM on Monday 26 Jan 2015 (Local Time) from KSJS Reporting Station
Overcast Overcast  
Wind Chill: 18°   Ceiling: 900
Heat Index: 26°   Visibility: 10mi
Dew Point: 23°   Wind: 7mph
Humidity: 89%   Direction: 300°WNW
Pressure: 29.83"   Gusts: 16mph
Location:  37.6°N, 82.89°W
Report Text: KSJS 262035Z AUTO 30006G14KT 260V320 10SM OVC009 M04/M05 A2983 RMK AO2 T10361052
Loading
Personal Weather Stations






























Interactive Weather Map New forecast layout! Learn more

10-Day Weather Forecast

Advertisements
Track Severe Weather on mobile